Tuesday, February 20, 2018, 4:38 AM EST
Back to Local

KMTP, Montauk Airport

Location: Montauk, NY, United States Lat: 41.067
Local Time: 4:38 AM EST ( 9:38 GMT) Lon: -71.917
Time Zone: US/Eastern Elev: 6 ft

Show me the last for .
Show Decoded

2018-02-20 03:54 METAR KMTP 200854Z AUTO 22008G15KT 10/10 A3031 RMK AO1 SLP262 T01000100 =
2018-02-20 02:54 METAR KMTP 200754Z AUTO 23009G19KT 10/10 A3031 RMK AO1 SLP263 T01000100 =
2018-02-20 01:54 METAR KMTP 200654Z AUTO 21010G17KT 09/09 A3031 RMK AO1 SLP262 T00940089 $ =
2018-02-20 00:54 METAR KMTP 200554Z AUTO 20011G17KT 09/09 A3033 RMK AO1 SLP268 6//// T00940089
                 10100 20083 $ =
2018-02-19 23:54 METAR KMTP 200454Z AUTO 21013G21KT 10/09 A3035 RMK AO1 SLP275 P0001 T01000094
                 401061028 $ =
2018-02-19 18:54 METAR KMTP 192354Z AUTO 21008KT 09/07 A3039 RMK AO1 SLP292 P0001 60001 T00890067
                 10106 20083 56010 =
2018-02-19 17:54 METAR KMTP 192254Z AUTO 19004KT 08/06 A3040 RMK AO1 SLP292 T00830061 =
2018-02-19 16:54 METAR KMTP 192154Z AUTO 19004KT 08/06 A3041 RMK AO1 SLP299 T00830061 =
2018-02-19 15:54 METAR KMTP 192054Z AUTO 20006KT 09/06 A3042 RMK AO1 SLP302 T00890061 56018 =
2018-02-19 14:54 METAR KMTP 191954Z AUTO 20006KT 09/06 A3042 RMK AO1 SLP302 T00890056 =
2018-02-19 13:54 METAR KMTP 191854Z AUTO VRB05KT 10/06 A3044 RMK AO1 SLP306 T01000056 =
2018-02-19 12:54 METAR KMTP 191754Z AUTO 20008G14KT 10/04 A3048 RMK AO1 SLP320 T01000044 10100
                 20039 58024 =
2018-02-19 11:54 METAR KMTP 191654Z AUTO 19009G16KT 09/04 A3050 RMK AO1 SLP329 T00940039 =
2018-02-19 10:54 METAR KMTP 191554Z AUTO 17007KT 08/03 A3053 RMK AO1 SLP337 T00830033 =
2018-02-19 09:54 METAR KMTP 191454Z AUTO 18009KT 08/03 A3055 RMK AO1 SLP344 T00780028 58006 =
2018-02-19 08:54 METAR KMTP 191354Z AUTO 17005KT 07/03 A3055 RMK AO1 SLP346 T00670028 =
2018-02-19 07:54 METAR KMTP 191254Z AUTO VRB05KT 06/02 A3056 RMK AO1 SLP348 T00560022 =
2018-02-19 06:54 METAR KMTP 191154Z AUTO VRB03KT 04/02 A3056 RMK AO1 SLP349 T00440017 10044 21028
                 51005 =
2018-02-19 05:54 METAR KMTP 191054Z AUTO VRB04KT 04/01 A3056 RMK AO1 SLP347 T00390011 =
2018-02-19 04:54 METAR KMTP 190954Z AUTO 00000KT 02/M01 A3056 RMK AO1 SLP347 T00171011 =

Support USWX by starting your Amazon purchase here.